Time;durP1;ratioP1;P1;durP2;ratioP2;P2;SDS_P1;SDS_P2;PMS_P1;PMS_P2;Temp;Humidity;BMP_temperature;BMP_pressure;BME280_temperature;BME280_humidity;BME280_pressure;Samples;Min_cycle;Max_cycle;Signal;HPM_P1;HPM_P2
2024/01/29 00:01:44;;;;;;;13.80;5.30;;;-1.10;99.90;;;-0.30;100.00;99304.28;5028767;28;20537;-80
2024/01/29 00:04:13;;;;;;;9.37;5.30;;;-1.10;99.90;;;-0.31;100.00;99308.59;5030604;28;20846;-79
2024/01/29 00:06:41;;;;;;;8.40;5.03;;;-1.10;99.90;;;-0.29;100.00;99304.22;5030073;28;20470;-80
2024/01/29 00:09:10;;;;;;;9.80;5.13;;;-1.10;99.90;;;-0.27;100.00;99299.81;5028869;28;20459;-79
2024/01/29 00:11:39;;;;;;;10.00;5.07;;;-1.00;99.90;;;-0.28;100.00;99299.91;5028142;28;21043;-80
2024/01/29 00:14:07;;;;;;;11.83;5.57;;;-1.10;99.90;;;-0.29;100.00;99298.25;5030145;28;20466;-80
2024/01/29 00:16:36;;;;;;;9.53;4.87;;;-1.00;99.90;;;-0.33;100.00;99297.59;5033052;28;20470;-78
2024/01/29 00:19:06;;;;;;;8.00;5.10;;;-1.10;99.90;;;-0.32;100.00;99303.56;5031400;28;21129;-80
2024/01/29 00:21:35;;;;;;;9.60;5.00;;;-1.10;99.90;;;-0.26;100.00;99305.78;5029345;28;20458;-79
2024/01/29 00:24:03;;;;;;;8.47;5.40;;;-1.00;99.90;;;-0.23;100.00;99303.84;5031432;28;20545;-79
2024/01/29 00:26:33;;;;;;;5.83;4.50;;;-0.90;99.90;;;-0.23;100.00;99298.72;5030849;28;20461;-80
2024/01/29 00:29:01;;;;;;;8.50;5.77;;;-1.00;99.90;;;-0.22;100.00;99294.41;5032131;28;20527;-80
2024/01/29 00:31:30;;;;;;;7.27;4.60;;;-1.00;99.90;;;-0.29;100.00;99293.09;5031181;28;20896;-79
2024/01/29 00:33:58;;;;;;;9.90;6.10;;;-1.10;99.90;;;-0.27;100.00;99296.41;5032272;28;20492;-80
2024/01/29 00:36:29;;;;;;;7.73;4.67;;;-1.00;99.90;;;-0.27;100.00;99298.97;5030904;28;20464;-79
2024/01/29 00:38:57;;;;;;;9.07;4.90;;;-1.10;99.90;;;-0.32;100.00;99299.25;5032318;28;20493;-80
2024/01/29 00:41:26;;;;;;;10.70;4.67;;;-1.10;99.90;;;-0.29;100.00;99298.25;5031803;28;20470;-79
2024/01/29 00:43:54;;;;;;;11.10;5.77;;;-1.10;99.90;;;-0.23;100.00;99300.47;5029968;28;20468;-80
2024/01/29 00:46:25;;;;;;;9.73;5.47;;;-1.00;99.90;;;-0.29;100.00;99293.09;5033268;28;20558;-79
2024/01/29 00:48:53;;;;;;;8.97;5.33;;;-1.10;99.90;;;-0.30;100.00;99299.16;5031512;28;20464;-79
2024/01/29 00:51:23;;;;;;;9.20;4.57;;;-1.10;99.90;;;-0.37;100.00;99298.69;5030418;28;20545;-80
2024/01/29 00:53:53;;;;;;;10.30;5.10;;;-1.20;99.90;;;-0.32;100.00;99298.44;5035935;28;20511;-80
2024/01/29 00:56:22;;;;;;;12.83;4.63;;;-1.10;99.90;;;-0.29;100.00;99304.22;5035171;28;20487;-79
2024/01/29 00:58:50;;;;;;;11.83;4.67;;;-1.10;99.90;;;-0.35;100.00;99298.59;5035675;28;20499;-80
2024/01/29 01:01:19;;;;;;;11.67;4.90;;;-1.10;99.90;;;-0.36;100.00;99296.94;5035716;28;20465;-80
2024/01/29 01:03:48;;;;;;;7.57;5.10;;;-1.20;99.90;;;-0.33;100.00;99296.75;5033169;28;20465;-79
2024/01/29 01:06:16;;;;;;;9.57;5.70;;;-1.10;99.90;;;-0.36;100.00;99291.81;5035773;28;20472;-79
2024/01/29 01:08:45;;;;;;;6.87;4.90;;;-1.10;99.90;;;-0.31;100.00;99290.63;5036665;28;20951;-80
2024/01/29 01:11:15;;;;;;;7.40;4.97;;;-1.10;99.90;;;-0.34;100.00;99289.97;5033696;28;20560;-80
2024/01/29 01:13:43;;;;;;;8.70;5.20;;;-1.10;99.90;;;-0.33;100.00;99291.63;5035239;28;20469;-80
2024/01/29 01:16:11;;;;;;;6.67;5.10;;;-1.10;99.90;;;-0.34;100.00;99289.97;5035307;28;20472;-80
2024/01/29 01:18:40;;;;;;;6.73;4.70;;;-1.10;99.90;;;-0.28;100.00;99287.91;5036184;28;20852;-80
2024/01/29 01:21:09;;;;;;;8.73;5.20;;;-1.00;99.90;;;-0.26;100.00;99278.34;5034481;28;20469;-80
2024/01/29 01:23:38;;;;;;;9.20;4.60;;;-1.00;99.90;;;-0.27;100.00;99281.00;5034193;28;20470;-79
2024/01/29 01:26:07;;;;;;;11.57;5.07;;;-1.10;99.90;;;-0.36;100.00;99279.78;5032371;28;20508;-80
2024/01/29 01:28:36;;;;;;;9.37;4.70;;;-1.20;99.90;;;-0.38;100.00;99283.38;5035667;28;20465;-79
2024/01/29 01:31:05;;;;;;;9.47;4.70;;;-1.20;99.90;;;-0.39;100.00;99279.97;5033874;28;20972;-79
2024/01/29 01:33:34;;;;;;;10.30;4.60;;;-1.20;99.90;;;-0.38;100.00;99288.50;5032352;28;20590;-80
2024/01/29 01:36:02;;;;;;;7.33;4.97;;;-1.20;99.90;;;-0.33;100.00;99289.06;5032313;28;20600;-80
2024/01/29 01:38:31;;;;;;;6.60;4.17;;;-1.10;99.90;;;-0.42;100.00;99293.00;5034937;28;20864;-80
2024/01/29 01:40:59;;;;;;;12.57;4.63;;;-1.20;99.90;;;-0.48;100.00;99293.31;5034596;28;20498;-80
2024/01/29 01:43:28;;;;;;;6.00;4.33;;;-1.30;99.90;;;-0.58;100.00;99293.03;5028448;28;20883;-79
2024/01/29 01:46:23;;;;;;;6.90;4.57;;;-1.40;99.90;;;-0.47;100.00;99292.41;5033988;28;20484;-80
2024/01/29 01:48:55;;;;;;;8.97;4.77;;;-1.30;99.90;;;-0.43;100.00;99286.19;5032223;28;20471;-79
2024/01/29 01:51:24;;;;;;;12.50;5.00;;;-1.20;99.90;;;-0.51;100.00;99290.94;5034573;28;20471;-80
2024/01/29 01:53:56;;;;;;;6.23;4.80;;;-1.30;99.90;;;-0.53;100.00;99291.03;5033602;28;20875;-79
2024/01/29 01:56:25;;;;;;;10.23;5.60;;;-1.30;99.90;;;-0.54;100.00;99285.97;5032974;28;21008;-80
2024/01/29 01:58:58;;;;;;;7.83;4.40;;;-1.30;99.90;;;-0.47;100.00;99289.84;5033161;28;20470;-80
2024/01/29 02:01:28;;;;;;;6.10;4.30;;;-1.30;99.90;;;-0.35;100.00;99289.16;5031972;28;20834;-79
2024/01/29 02:03:57;;;;;;;9.73;5.50;;;-1.10;99.90;;;-0.37;100.00;99285.84;5034910;28;20462;-80
2024/01/29 02:06:26;;;;;;;6.83;4.57;;;-1.10;99.90;;;-0.43;100.00;99280.22;5032835;28;20563;-79
2024/01/29 02:08:55;;;;;;;6.70;4.40;;;-1.20;99.90;;;-0.44;100.00;99278.56;5031579;28;20565;-79
2024/01/29 02:11:25;;;;;;;8.53;4.43;;;-1.20;99.90;;;-0.42;100.00;99282.72;5031223;28;20842;-80
2024/01/29 02:13:53;;;;;;;11.90;4.37;;;-1.20;99.90;;;-0.52;100.00;99274.69;5033985;28;20475;-79
2024/01/29 02:16:22;;;;;;;6.30;4.10;;;-1.20;99.90;;;-0.45;100.00;99282.88;5033248;28;20462;-80
2024/01/29 02:18:52;;;;;;;8.60;4.40;;;-1.20;99.90;;;-0.43;100.00;99277.66;5033276;28;20469;-79
2024/01/29 02:21:21;;;;;;;10.70;4.97;;;-1.20;99.90;;;-0.41;100.00;99284.34;5031971;28;20877;-80
2024/01/29 02:23:51;;;;;;;12.60;4.90;;;-1.10;99.90;;;-0.37;100.00;99282.44;5033866;28;20556;-80
2024/01/29 02:26:19;;;;;;;9.00;5.10;;;-1.10;99.90;;;-0.47;100.00;99278.75;5033177;28;20963;-79
2024/01/29 02:28:48;;;;;;;8.87;4.80;;;-1.30;99.90;;;-0.45;100.00;99272.59;5032017;28;20474;-79
2024/01/29 02:31:16;;;;;;;8.87;5.60;;;-1.20;99.90;;;-0.40;100.00;99272.34;5031793;28;20557;-79
2024/01/29 02:33:45;;;;;;;8.00;4.27;;;-1.20;99.90;;;-0.36;100.00;99277.22;5032883;28;20463;-79
2024/01/29 02:36:13;;;;;;;9.13;4.90;;;-1.10;99.90;;;-0.39;100.00;99276.56;5028431;28;20466;-80
2024/01/29 02:38:42;;;;;;;6.90;4.50;;;-1.20;99.90;;;-0.53;100.00;99273.06;5030377;28;20470;-78
2024/01/29 02:41:12;;;;;;;6.03;4.20;;;-1.30;99.90;;;-0.49;100.00;99265.19;5029155;28;21120;-79
2024/01/29 02:43:41;;;;;;;4.77;3.67;;;-1.30;99.90;;;-0.44;100.00;99263.97;5033305;28;20862;-80
2024/01/29 02:46:10;;;;;;;7.67;4.27;;;-1.20;99.90;;;-0.37;100.00;99254.19;5030234;28;20558;-80
2024/01/29 02:48:40;;;;;;;8.17;4.40;;;-1.10;99.90;;;-0.36;100.00;99260.97;5032716;28;20546;-80
2024/01/29 02:51:08;;;;;;;16.60;4.70;;;-1.10;99.90;;;-0.35;100.00;99257.50;5030816;28;20551;-79
2024/01/29 02:53:37;;;;;;;9.03;4.93;;;-1.10;99.90;;;-0.41;100.00;99257.84;5035280;28;20484;-79
2024/01/29 02:56:06;;;;;;;7.77;4.33;;;-1.20;99.90;;;-0.54;100.00;99258.56;5033595;28;21094;-80
2024/01/29 02:58:36;;;;;;;7.30;4.67;;;-1.30;99.90;;;-0.43;100.00;99267.38;5030593;28;20465;-79
2024/01/29 03:01:04;;;;;;;7.57;3.90;;;-1.20;99.90;;;-0.41;100.00;99257.84;5032006;28;20530;-79
2024/01/29 03:03:33;;;;;;;6.63;3.70;;;-1.10;99.90;;;-0.51;100.00;99258.38;5031016;28;20845;-80
2024/01/29 03:06:01;;;;;;;10.90;4.33;;;-1.30;99.90;;;-0.43;100.00;99259.69;5031201;28;20456;-79
2024/01/29 03:08:31;;;;;;;10.17;4.70;;;-1.20;99.90;;;-0.38;100.00;99261.06;5035257;28;20838;-80
2024/01/29 03:10:59;;;;;;;8.63;4.13;;;-1.10;99.90;;;-0.39;100.00;99250.88;5034527;28;20463;-80
2024/01/29 03:13:28;;;;;;;6.53;4.47;;;-1.10;99.90;;;-0.47;100.00;99253.88;5030495;28;20711;-79
2024/01/29 03:15:58;;;;;;;11.73;4.53;;;-1.20;99.90;;;-0.40;100.00;99262.91;5033291;28;21191;-80
2024/01/29 03:18:26;;;;;;;9.10;4.20;;;-1.20;99.90;;;-0.37;100.00;99259.31;5034163;28;20471;-80
2024/01/29 03:20:55;;;;;;;7.57;4.50;;;-1.10;99.90;;;-0.44;100.00;99258.84;5033367;28;20934;-80
2024/01/29 03:23:24;;;;;;;17.93;5.00;;;-1.20;99.90;;;-0.56;100.00;99260.41;5032830;28;20778;-80
2024/01/29 03:25:53;;;;;;;13.23;4.60;;;-1.40;99.90;;;-0.49;100.00;99260.03;5033125;28;20504;-80
2024/01/29 03:28:21;;;;;;;5.33;4.07;;;-1.30;99.90;;;-0.51;100.00;99260.94;5032128;28;20453;-80
2024/01/29 03:30:50;;;;;;;7.07;4.00;;;-1.30;99.90;;;-0.43;100.00;99259.69;5031593;28;20462;-80
2024/01/29 03:33:20;;;;;;;6.53;3.43;;;-1.20;99.90;;;-0.48;100.00;99266.81;5032759;28;20537;-80
2024/01/29 03:35:48;;;;;;;6.60;4.17;;;-1.30;99.90;;;-0.61;100.00;99262.38;5033715;28;20910;-79
2024/01/29 03:38:17;;;;;;;6.80;4.10;;;-1.40;99.90;;;-0.72;100.00;99264.72;5034215;28;20473;-80
2024/01/29 03:40:46;;;;;;;9.60;4.33;;;-1.50;99.90;;;-0.61;100.00;99259.81;5030942;28;20907;-79
2024/01/29 03:43:15;;;;;;;7.10;4.60;;;-1.40;99.90;;;-0.53;100.00;99257.66;5031878;28;21062;-79
2024/01/29 03:45:43;;;;;;;6.43;3.87;;;-1.30;99.90;;;-0.73;100.00;99263.06;5031964;28;20886;-79
2024/01/29 03:48:12;;;;;;;8.77;4.33;;;-1.40;99.90;;;-0.78;100.00;99259.13;5031208;28;20466;-79
2024/01/29 03:50:42;;;;;;;8.10;4.27;;;-1.60;99.90;;;-0.72;100.00;99256.19;5029856;28;20462;-79
2024/01/29 03:53:11;;;;;;;4.57;3.93;;;-1.50;99.90;;;-0.69;100.00;99263.72;5034799;28;21049;-80
2024/01/29 03:55:41;;;;;;;7.70;4.20;;;-1.50;99.90;;;-0.70;100.00;99255.22;5031415;28;20584;-79
2024/01/29 03:58:10;;;;;;;10.17;5.13;;;-1.40;99.90;;;-0.69;100.00;99263.72;5029313;28;20489;-79
2024/01/29 04:00:38;;;;;;;10.23;4.67;;;-1.50;99.90;;;-0.74;100.00;99264.00;5031330;28;20494;-80
2024/01/29 04:03:08;;;;;;;6.73;3.77;;;-1.50;99.90;;;-0.74;100.00;99266.56;5029903;28;20473;-80
2024/01/29 04:05:36;;;;;;;7.23;4.00;;;-1.50;99.90;;;-0.75;100.00;99264.06;5029465;28;20470;-79
2024/01/29 04:08:07;;;;;;;6.20;4.30;;;-1.60;99.90;;;-0.67;100.00;99267.03;5033934;28;20460;-80
2024/01/29 04:10:36;;;;;;;4.73;3.83;;;-1.50;99.90;;;-0.61;100.00;99267.53;5031757;28;20472;-80
2024/01/29 04:13:05;;;;;;;10.00;4.50;;;-1.30;99.90;;;-0.69;100.00;99268.84;5029931;28;20494;-80
2024/01/29 04:15:33;;;;;;;7.50;4.60;;;-1.50;99.90;;;-0.76;100.00;99267.53;5031864;28;20930;-79
2024/01/29 04:18:02;;;;;;;5.67;4.37;;;-1.60;99.90;;;-0.73;100.00;99270.75;5031832;28;20464;-80
2024/01/29 04:20:30;;;;;;;5.97;4.33;;;-1.50;99.90;;;-0.67;100.00;99267.03;5032402;28;20845;-80
2024/01/29 04:22:59;;;;;;;9.73;3.73;;;-1.40;99.90;;;-0.65;100.00;99260.91;5033358;28;20519;-80
2024/01/29 04:25:29;;;;;;;6.43;3.67;;;-1.40;99.90;;;-0.60;100.00;99264.06;5030070;28;20528;-80
2024/01/29 04:27:57;;;;;;;7.90;4.20;;;-1.40;99.90;;;-0.57;100.00;99268.16;5030738;28;20465;-80
2024/01/29 04:30:26;;;;;;;6.50;3.90;;;-1.30;99.90;;;-0.59;100.00;99262.31;5031644;28;20472;-80
2024/01/29 04:32:55;;;;;;;7.13;4.53;;;-1.30;99.90;;;-0.58;100.00;99254.50;5031828;28;20468;-80
2024/01/29 04:35:28;;;;;;;7.47;4.30;;;-1.30;99.90;;;-0.57;100.00;99257.91;5032405;28;20552;-80
2024/01/29 04:37:57;;;;;;;5.20;3.57;;;-1.30;99.90;;;-0.60;100.00;99258.91;5030064;28;20973;-80
2024/01/29 04:40:25;;;;;;;7.40;4.00;;;-1.30;99.90;;;-0.59;100.00;99252.84;5032653;28;20558;-80
2024/01/29 04:42:55;;;;;;;7.40;4.40;;;-1.40;99.90;;;-0.57;100.00;99260.47;5028632;28;20512;-79
2024/01/29 04:45:24;;;;;;;5.87;3.97;;;-1.30;99.90;;;-0.55;100.00;99254.31;5028227;28;20587;-80
2024/01/29 04:47:53;;;;;;;5.60;3.70;;;-1.30;99.90;;;-0.55;100.00;99256.88;5031185;28;20473;-80
2024/01/29 04:50:21;;;;;;;7.37;3.90;;;-1.30;99.90;;;-0.52;100.00;99254.16;5032984;28;20463;-80
2024/01/29 04:52:50;;;;;;;4.47;3.97;;;-1.30;99.90;;;-0.54;100.00;99248.28;5028602;28;20498;-80
2024/01/29 04:55:18;;;;;;;7.57;3.23;;;-1.30;99.90;;;-0.53;100.00;99249.94;5030137;28;20486;-80
2024/01/29 04:57:47;;;;;;;5.33;3.43;;;-1.30;99.90;;;-0.52;100.00;99256.72;5029844;28;20965;-80
2024/01/29 05:00:17;;;;;;;9.53;4.67;;;-1.30;99.90;;;-0.48;100.00;99254.78;5029992;28;20545;-80
2024/01/29 05:02:47;;;;;;;6.17;3.97;;;-1.20;99.90;;;-0.47;100.00;99263.34;5031487;28;21428;-80
2024/01/29 05:05:17;;;;;;;11.50;4.33;;;-1.20;99.90;;;-0.46;100.00;99259.84;5029732;28;21006;-80
2024/01/29 05:07:45;;;;;;;7.30;3.40;;;-1.20;99.90;;;-0.48;100.00;99256.53;5030307;28;20467;-80
2024/01/29 05:10:15;;;;;;;7.33;3.57;;;-1.20;99.90;;;-0.50;100.00;99264.34;5031235;28;20473;-79
2024/01/29 05:12:43;;;;;;;9.27;4.40;;;-1.30;99.90;;;-0.51;100.00;99270.38;5027181;28;20474;-80
2024/01/29 05:15:12;;;;;;;4.53;3.87;;;-1.30;99.90;;;-0.53;100.00;99270.50;5027479;28;20465;-81
2024/01/29 05:17:42;;;;;;;7.97;4.17;;;-1.30;99.90;;;-0.49;100.00;99270.31;5028471;28;20465;-80
2024/01/29 05:20:12;;;;;;;5.80;4.10;;;-1.20;99.90;;;-0.55;100.00;99268.91;5029460;28;20472;-80
2024/01/29 05:22:43;;;;;;;6.47;4.23;;;-1.30;99.90;;;-0.48;100.00;99265.06;5029868;28;20519;-78
2024/01/29 05:25:11;;;;;;;5.57;3.30;;;-1.20;99.90;;;-0.46;100.00;99265.00;5024929;28;20478;-80
2024/01/29 05:27:40;;;;;;;8.13;4.10;;;-1.20;99.90;;;-0.46;100.00;99260.69;5028877;28;20460;-80
2024/01/29 05:30:10;;;;;;;5.40;3.93;;;-1.20;99.90;;;-0.47;100.00;99273.59;5030493;28;20494;-80
2024/01/29 05:32:39;;;;;;;5.77;3.90;;;-1.20;99.90;;;-0.43;100.00;99275.09;5030532;28;20821;-79
2024/01/29 05:35:10;;;;;;;7.97;4.20;;;-1.20;99.90;;;-0.45;100.00;99279.50;5031805;28;20544;-79
2024/01/29 05:37:39;;;;;;;7.43;4.23;;;-1.20;99.90;;;-0.45;100.00;99280.31;5032466;28;20464;-79
2024/01/29 05:40:11;;;;;;;8.30;3.50;;;-1.20;99.90;;;-0.46;100.00;99280.41;5034546;28;20874;-79
2024/01/29 05:42:43;;;;;;;7.93;4.67;;;-1.20;99.90;;;-0.47;100.00;99279.56;5032667;28;21346;-79
2024/01/29 05:45:12;;;;;;;8.03;3.90;;;-1.20;99.90;;;-0.43;100.00;99283.63;5031627;28;20466;-80
2024/01/29 05:47:40;;;;;;;7.07;3.73;;;-1.20;99.90;;;-0.44;100.00;99287.09;5033475;28;20818;-79
2024/01/29 05:50:10;;;;;;;6.40;4.83;;;-1.20;99.90;;;-0.41;100.00;99279.22;5034037;28;20554;-78
2024/01/29 05:52:40;;;;;;;7.20;4.67;;;-1.20;99.90;;;-0.40;100.00;99285.19;5030006;28;20474;-80
2024/01/29 05:55:09;;;;;;;5.27;4.17;;;-1.10;99.90;;;-0.43;100.00;99282.78;5029591;28;20497;-81
2024/01/29 05:57:38;;;;;;;4.70;3.77;;;-1.20;99.90;;;-0.44;100.00;99283.69;5028665;28;20537;-78
2024/01/29 06:00:10;;;;;;;7.20;3.87;;;-1.20;99.90;;;-0.42;100.00;99287.03;5034193;28;20525;-78
2024/01/29 06:02:42;;;;;;;6.80;3.83;;;-1.20;99.90;;;-0.43;100.00;99293.06;5033281;28;20552;-78
2024/01/29 06:05:14;;;;;;;6.80;4.07;;;-1.20;99.90;;;-0.43;100.00;99295.63;5035200;28;20455;-79
2024/01/29 06:07:43;;;;;;;11.43;4.13;;;-1.20;99.90;;;-0.44;100.00;99299.13;5032960;28;20552;-78
2024/01/29 06:10:15;;;;;;;5.20;3.93;;;-1.20;99.90;;;-0.43;100.00;99303.34;5033955;28;20549;-78
2024/01/29 06:12:43;;;;;;;5.93;4.27;;;-1.20;99.90;;;-0.44;100.00;99304.25;5035569;28;20546;-79
2024/01/29 06:15:12;;;;;;;7.50;4.17;;;-1.20;99.90;;;-0.47;100.00;99307.00;5033365;28;20459;-78
2024/01/29 06:17:41;;;;;;;5.47;4.27;;;-1.30;99.90;;;-0.46;100.00;99306.09;5033114;28;20853;-79
2024/01/29 06:20:13;;;;;;;7.53;3.87;;;-1.20;99.90;;;-0.44;100.00;99299.13;5030553;28;20962;-78
2024/01/29 06:22:46;;;;;;;7.53;4.10;;;-1.20;99.90;;;-0.49;100.00;99301.97;5033866;28;21005;-78
2024/01/29 06:25:19;;;;;;;7.67;4.17;;;-1.20;99.90;;;-0.47;100.00;99305.25;5033705;28;20704;-79
2024/01/29 06:27:48;;;;;;;6.13;3.53;;;-1.20;99.90;;;-0.43;100.00;99308.47;5032049;28;20520;-78
2024/01/29 06:30:16;;;;;;;9.53;4.70;;;-1.20;99.90;;;-0.47;100.00;99304.44;5033832;28;20509;-78
2024/01/29 06:32:45;;;;;;;5.77;4.20;;;-1.20;99.90;;;-0.50;100.00;99310.56;5035438;28;20467;-79
2024/01/29 06:35:18;;;;;;;6.60;4.50;;;-1.30;99.90;;;-0.51;100.00;99308.91;5032971;28;21411;-79
2024/01/29 06:37:47;;;;;;;8.50;3.97;;;-1.30;99.90;;;-0.54;100.00;99314.22;5033103;28;20463;-78
2024/01/29 06:40:15;;;;;;;7.60;4.20;;;-1.30;99.90;;;-0.53;100.00;99313.31;5031823;28;20466;-78
2024/01/29 06:42:44;;;;;;;8.83;4.03;;;-1.30;99.90;;;-0.56;100.00;99311.75;5032271;28;20494;-78
2024/01/29 06:45:13;;;;;;;9.27;4.17;;;-1.30;99.90;;;-0.57;100.00;99314.41;5035532;28;20544;-78
2024/01/29 06:47:41;;;;;;;6.00;4.67;;;-1.30;99.90;;;-0.60;100.00;99315.41;5031942;28;21011;-79
2024/01/29 06:50:10;;;;;;;6.43;4.53;;;-1.40;99.90;;;-0.61;100.00;99316.31;5030952;28;20466;-78
2024/01/29 06:52:40;;;;;;;9.13;4.80;;;-1.40;99.90;;;-0.56;100.00;99321.19;5032295;28;20479;-80
2024/01/29 06:55:08;;;;;;;9.07;4.40;;;-1.30;99.90;;;-0.61;100.00;99320.63;5029238;28;20470;-80
2024/01/29 06:57:38;;;;;;;17.07;4.50;;;-1.40;99.90;;;-0.63;100.00;99325.84;5028826;28;20520;-80
2024/01/29 07:00:09;;;;;;;10.93;4.67;;;-1.40;99.90;;;-0.65;100.00;99335.38;5028330;28;20457;-80
2024/01/29 07:02:38;;;;;;;6.40;4.40;;;-1.40;99.90;;;-0.66;100.00;99335.47;5028926;28;20486;-80
2024/01/29 07:05:07;;;;;;;8.30;4.03;;;-1.40;99.90;;;-0.65;100.00;99337.94;5027711;28;20549;-82
2024/01/29 07:07:35;;;;;;;7.97;4.00;;;-1.40;99.90;;;-0.68;100.00;99335.53;5029611;28;20457;-81
2024/01/29 07:10:07;;;;;;;10.23;4.90;;;-1.50;99.90;;;-0.66;100.00;99331.13;5028305;28;20658;-82
2024/01/29 07:12:36;;;;;;;5.20;3.90;;;-1.40;99.90;;;-0.62;100.00;99342.91;5029819;28;20739;-80
2024/01/29 07:15:06;;;;;;;7.10;4.73;;;-1.40;99.90;;;-0.64;100.00;99344.75;5033880;28;20482;-82
2024/01/29 07:17:34;;;;;;;8.37;4.50;;;-1.40;99.90;;;-0.69;100.00;99349.28;5029072;28;22669;-82
2024/01/29 07:20:03;;;;;;;5.93;3.50;;;-1.50;99.90;;;-0.74;100.00;99353.88;5029581;28;20461;-81
2024/01/29 07:22:37;;;;;;;9.57;4.30;;;-1.50;99.90;;;-0.68;100.00;99345.81;5030829;28;20552;-80
2024/01/29 07:25:09;;;;;;;7.53;4.33;;;-1.40;99.90;;;-0.72;100.00;99346.88;5027580;28;20972;-80
2024/01/29 07:27:39;;;;;;;6.60;4.60;;;-1.50;99.90;;;-0.71;100.00;99343.41;5029537;28;20560;-82
2024/01/29 07:30:09;;;;;;;5.67;3.27;;;-1.40;99.90;;;-0.69;100.00;99359.56;5028041;28;20466;-80
2024/01/29 07:32:37;;;;;;;7.30;4.30;;;-1.50;99.90;;;-0.72;100.00;99357.16;5030887;28;20477;-80
2024/01/29 07:35:07;;;;;;;11.60;4.80;;;-1.50;99.90;;;-0.75;100.00;99365.03;5029364;28;20470;-80
2024/01/29 07:37:38;;;;;;;7.43;4.00;;;-1.50;99.90;;;-0.76;100.00;99371.06;5028114;28;20462;-80
2024/01/29 07:40:10;;;;;;;6.33;4.07;;;-1.50;99.90;;;-0.73;100.00;99360.63;5027280;28;20466;-80
2024/01/29 07:42:39;;;;;;;5.00;3.60;;;-1.40;99.90;;;-0.76;100.00;99368.50;5031690;28;21060;-80
2024/01/29 07:45:08;;;;;;;8.50;4.80;;;-1.50;99.90;;;-0.78;100.00;99367.78;5030016;28;20556;-80
2024/01/29 07:47:37;;;;;;;6.47;4.37;;;-1.50;99.90;;;-0.77;100.00;99366.88;5027777;28;20461;-81
2024/01/29 07:50:06;;;;;;;7.00;4.43;;;-1.50;99.90;;;-0.75;100.00;99370.16;5026394;28;20547;-80
2024/01/29 07:52:36;;;;;;;6.67;4.20;;;-1.50;99.90;;;-0.73;100.00;99376.03;5028655;28;20473;-81
2024/01/29 07:55:05;;;;;;;6.97;4.30;;;-1.50;99.90;;;-0.75;100.00;99367.59;5026416;28;20999;-80
2024/01/29 07:57:37;;;;;;;9.63;3.83;;;-1.50;99.90;;;-0.75;100.00;99377.03;5029747;28;20637;-82
2024/01/29 08:00:08;;;;;;;6.87;4.30;;;-1.50;99.90;;;-0.72;100.00;99377.69;5031971;28;20458;-82
2024/01/29 08:02:36;;;;;;;9.80;4.43;;;-1.50;99.90;;;-0.69;100.00;99381.84;5026962;28;20469;-82
2024/01/29 08:05:06;;;;;;;7.77;4.20;;;-1.50;99.90;;;-0.66;100.00;99382.50;5027581;28;21018;-82
2024/01/29 08:07:35;;;;;;;12.50;4.70;;;-1.40;99.90;;;-0.60;100.00;99386.50;5029604;28;20479;-81
2024/01/29 08:10:04;;;;;;;8.40;3.90;;;-1.30;99.90;;;-0.57;100.00;99384.56;5027306;28;20924;-81
2024/01/29 08:12:32;;;;;;;6.10;4.30;;;-1.30;99.90;;;-0.57;100.00;99387.16;5026767;28;20472;-80
2024/01/29 08:15:03;;;;;;;7.17;4.40;;;-1.30;99.90;;;-0.55;100.00;99385.31;5029133;28;21046;-80
2024/01/29 08:17:32;;;;;;;6.97;4.40;;;-1.30;99.90;;;-0.57;100.00;99378.59;5027602;28;20469;-80
2024/01/29 08:20:00;;;;;;;8.83;4.63;;;-1.20;99.90;;;-0.57;100.00;99386.31;5026620;28;20476;-81
2024/01/29 08:22:29;;;;;;;10.13;5.10;;;-1.30;99.90;;;-0.55;100.00;99389.63;5024496;28;20553;-81
2024/01/29 08:24:58;;;;;;;8.50;4.37;;;-1.30;99.90;;;-0.54;100.00;99386.97;5030454;28;21260;-80
2024/01/29 08:27:29;;;;;;;8.07;4.87;;;-1.30;99.90;;;-0.52;100.00;99380.00;5029649;28;20473;-80
2024/01/29 08:29:57;;;;;;;6.50;4.50;;;-1.30;99.90;;;-0.48;100.00;99390.09;5027627;28;20516;-82
2024/01/29 08:32:27;;;;;;;13.00;4.47;;;-1.20;99.90;;;-0.48;100.00;99384.97;5025441;28;20460;-81
2024/01/29 08:34:56;;;;;;;7.80;4.13;;;-1.20;99.90;;;-0.44;100.00;99384.72;5029849;28;20476;-80
2024/01/29 08:37:25;;;;;;;4.80;3.50;;;-1.10;99.90;;;-0.41;100.00;99386.28;5025046;28;20821;-80
2024/01/29 08:39:53;;;;;;;19.33;4.00;;;-1.10;99.90;;;-0.41;100.00;99384.53;5030300;28;20473;-80
2024/01/29 08:42:22;;;;;;;6.40;4.60;;;-1.10;99.90;;;-0.39;100.00;99387.03;5030455;28;20705;-80
2024/01/29 08:44:50;;;;;;;5.90;3.83;;;-1.10;99.90;;;-0.38;100.00;99389.50;5030063;28;20511;-80
2024/01/29 08:47:19;;;;;;;6.57;4.60;;;-1.10;99.90;;;-0.34;100.00;99383.28;5027302;28;20993;-80
2024/01/29 08:49:50;;;;;;;7.03;4.10;;;-1.00;99.90;;;-0.32;100.00;99380.66;5028037;28;20547;-78
2024/01/29 08:52:19;;;;;;;5.90;4.63;;;-1.00;99.90;;;-0.34;100.00;99373.00;5030358;28;20832;-80
2024/01/29 08:54:48;;;;;;;10.33;4.50;;;-1.10;99.90;;;-0.32;100.00;99375.50;5028200;28;20491;-80
2024/01/29 08:57:16;;;;;;;7.50;3.90;;;-1.10;99.90;;;-0.29;100.00;99380.47;5025850;28;21164;-80
2024/01/29 08:59:45;;;;;;;6.77;4.17;;;-1.00;99.90;;;-0.28;100.00;99388.09;5027890;28;20467;-81
2024/01/29 09:02:13;;;;;;;7.90;4.33;;;-1.00;99.90;;;-0.25;100.00;99387.09;5027563;28;21352;-80
2024/01/29 09:04:43;;;;;;;6.10;4.20;;;-1.00;99.90;;;-0.20;100.00;99395.38;5031814;28;20493;-79
2024/01/29 09:07:17;;;;;;;9.53;4.80;;;-0.90;99.90;;;-0.17;100.00;99395.19;5030836;28;20483;-80
2024/01/29 09:09:46;;;;;;;10.23;5.13;;;-0.90;99.90;;;-0.16;100.00;99396.84;5029276;28;20537;-80
2024/01/29 09:12:15;;;;;;;8.50;4.40;;;-0.90;99.90;;;-0.12;100.00;99395.75;5030646;28;20564;-80
2024/01/29 09:14:44;;;;;;;7.40;3.80;;;-0.80;99.90;;;-0.09;100.00;99393.84;5033317;28;20463;-79
2024/01/29 09:17:12;;;;;;;10.40;4.80;;;-0.80;99.90;;;-0.05;100.00;99404.78;5034488;28;20468;-80
2024/01/29 09:19:41;;;;;;;7.13;4.27;;;-0.80;99.90;;;-0.03;100.00;99397.81;5034700;28;20887;-80
2024/01/29 09:22:09;;;;;;;6.93;4.13;;;-0.70;99.90;;;-0.01;100.00;99386.53;5035362;28;20980;-80
2024/01/29 09:24:40;;;;;;;9.57;5.00;;;-0.70;99.90;;;0.03;100.00;99394.91;5034218;28;20505;-80
2024/01/29 09:27:08;;;;;;;5.10;4.03;;;-0.70;99.90;;;0.06;100.00;99389.59;5034460;28;20466;-80
2024/01/29 09:29:36;;;;;;;8.80;4.97;;;-0.70;99.90;;;0.08;100.00;99384.34;5037174;28;20473;-81
2024/01/29 09:32:07;;;;;;;8.73;3.67;;;-0.60;99.90;;;0.09;100.00;99386.84;5034788;28;20482;-79
2024/01/29 09:34:35;;;;;;;12.47;4.67;;;-0.60;99.90;;;0.12;100.00;99391.78;5031697;28;20889;-80
2024/01/29 09:37:04;;;;;;;8.77;4.27;;;-0.60;99.90;;;0.16;100.00;99385.56;5032735;28;20521;-80
2024/01/29 09:39:33;;;;;;;7.13;4.13;;;-0.50;99.90;;;0.19;100.00;99387.94;5032591;28;20461;-80
2024/01/29 09:42:04;;;;;;;6.93;4.27;;;-0.50;99.90;;;0.22;100.00;99387.78;5033480;28;20547;-80
2024/01/29 09:44:40;;;;;;;11.63;4.60;;;-0.50;99.90;;;0.27;100.00;99392.66;5034354;28;20587;-80
2024/01/29 09:47:10;;;;;;;7.67;4.50;;;-0.40;99.90;;;0.32;100.00;99388.06;5034064;28;20766;-80
2024/01/29 09:49:39;;;;;;;7.97;5.07;;;-0.40;99.90;;;0.37;100.00;99388.63;5035412;28;20466;-80
2024/01/29 09:52:12;;;;;;;6.40;4.13;;;-0.30;99.90;;;0.40;100.00;99380.72;5033109;28;20459;-80
2024/01/29 09:54:42;;;;;;;8.10;4.60;;;-0.30;99.90;;;0.43;100.00;99380.53;5033503;28;20921;-79
2024/01/29 09:57:15;;;;;;;11.30;4.83;;;-0.30;99.90;;;0.48;100.00;99376.78;5033714;28;20455;-79
2024/01/29 09:59:45;;;;;;;9.73;5.17;;;-0.20;99.90;;;0.52;100.00;99383.38;5032881;28;21120;-80
2024/01/29 10:02:17;;;;;;;8.20;5.33;;;-0.20;99.90;;;0.56;100.00;99380.63;5031380;28;20467;-80
2024/01/29 10:04:46;;;;;;;11.53;5.27;;;-0.10;99.90;;;0.59;100.00;99381.28;5030758;28;21200;-79
2024/01/29 10:07:16;;;;;;;9.23;4.83;;;-0.10;99.90;;;0.64;100.00;99366.41;5034935;28;20465;-79
2024/01/29 10:09:45;;;;;;;11.40;4.77;;;0.00;99.90;;;0.72;100.00;99376.25;5034812;28;21097;-80
2024/01/29 10:12:26;;;;;;;6.53;4.70;;;0.10;99.90;;;0.75;100.00;99371.72;5033424;28;20972;-80
2024/01/29 10:14:56;;;;;;;8.23;4.13;;;0.10;99.90;;;0.80;100.00;99368.88;5033642;28;20553;-80
2024/01/29 10:17:26;;;;;;;6.13;3.80;;;0.20;99.90;;;0.85;100.00;99369.41;5035495;28;20477;-79
2024/01/29 10:19:54;;;;;;;5.77;4.60;;;0.20;99.90;;;0.90;100.00;99373.34;5035177;28;20487;-80
2024/01/29 10:22:26;;;;;;;8.77;5.10;;;0.30;99.90;;;0.96;100.00;99372.16;5034222;28;20474;-81